createdAt,value
2018-07-24T00:02:40.877Z,100396.53
2018-07-24T00:05:38.879Z,100398.22
2018-07-24T00:08:36.930Z,100394.20
2018-07-24T00:11:34.745Z,100396.20
2018-07-24T00:14:32.770Z,100388.81
2018-07-24T00:17:30.175Z,100393.42
2018-07-24T00:20:28.106Z,100398.60
2018-07-24T00:23:25.557Z,100399.98
2018-07-24T00:26:23.520Z,100402.84
2018-07-24T00:29:20.886Z,100402.33
2018-07-24T00:32:18.974Z,100391.58
2018-07-24T00:35:17.127Z,100390.77
2018-07-24T00:38:14.438Z,100386.91
2018-07-24T00:41:12.492Z,100384.84
2018-07-24T00:44:10.589Z,100379.33
2018-07-24T00:47:08.585Z,100375.61
2018-07-24T00:50:06.774Z,100381.91
2018-07-24T00:53:04.922Z,100386.34
2018-07-24T00:56:03.081Z,100388.34
2018-07-24T00:59:01.179Z,100385.79
2018-07-24T01:01:58.357Z,100389.31
2018-07-24T01:04:56.544Z,100379.37
2018-07-24T01:07:54.374Z,100377.02
2018-07-24T01:10:52.474Z,100375.57
2018-07-24T01:13:50.575Z,100371.22
2018-07-24T01:16:48.507Z,100378.26
2018-07-24T01:19:45.869Z,100378.42
2018-07-24T01:22:43.758Z,100373.86
2018-07-24T01:25:41.609Z,100376.78
2018-07-24T01:28:39.566Z,100375.07
2018-07-24T01:31:37.579Z,100377.77
2018-07-24T01:34:34.867Z,100372.60
2018-07-24T01:37:32.719Z,100372.13
2018-07-24T01:40:30.962Z,100377.55
2018-07-24T01:43:29.034Z,100370.24
2018-07-24T01:46:27.035Z,100373.38
2018-07-24T01:49:24.304Z,100376.54
2018-07-24T01:52:21.610Z,100373.72
2018-07-24T01:55:20.538Z,100373.56
2018-07-24T01:58:18.681Z,100380.22
2018-07-24T02:01:16.768Z,100376.23
2018-07-24T02:04:14.877Z,100378.55
2018-07-24T02:07:13.035Z,100373.41
2018-07-24T02:10:10.188Z,100375.23
2018-07-24T02:13:08.168Z,100379.23
2018-07-24T02:16:06.258Z,100374.62
2018-07-24T02:19:04.243Z,100380.27
2018-07-24T02:22:02.078Z,100374.31
2018-07-24T02:24:59.166Z,100370.30
2018-07-24T02:27:57.246Z,100370.97
2018-07-24T02:30:55.228Z,100377.42
2018-07-24T02:33:53.230Z,100378.58
2018-07-24T02:36:51.145Z,100375.94
2018-07-24T02:39:49.150Z,100372.61
2018-07-24T02:42:47.299Z,100369.31
2018-07-24T02:45:45.362Z,100367.83
2018-07-24T02:48:43.454Z,100360.50
2018-07-24T02:51:41.638Z,100362.98
2018-07-24T02:54:38.974Z,100363.34
2018-07-24T02:57:36.686Z,100362.00
2018-07-24T03:00:34.434Z,100364.17
2018-07-24T03:03:32.616Z,100357.48
2018-07-24T03:06:30.611Z,100353.03
2018-07-24T03:09:29.617Z,100363.48
2018-07-24T03:12:27.175Z,100364.62
2018-07-24T03:15:25.031Z,100360.66
2018-07-24T03:18:23.117Z,100362.80
2018-07-24T03:21:21.182Z,100360.36
2018-07-24T03:24:19.364Z,100362.50
2018-07-24T03:27:17.218Z,100358.02
2018-07-24T03:30:15.234Z,100355.16
2018-07-24T03:33:13.366Z,100359.63
2018-07-24T03:36:11.446Z,100362.92
2018-07-24T03:39:09.637Z,100356.29
2018-07-24T03:42:07.813Z,100363.23
2018-07-24T03:45:05.927Z,100359.46
2018-07-24T03:48:04.008Z,100360.66
2018-07-24T03:51:01.942Z,100362.00
2018-07-24T03:53:59.992Z,100360.35
2018-07-24T03:56:57.273Z,100367.30
2018-07-24T03:59:54.611Z,100360.75
2018-07-24T04:02:52.410Z,100366.41
2018-07-24T04:05:50.513Z,100368.17
2018-07-24T04:08:48.422Z,100364.42
2018-07-24T04:11:45.622Z,100364.88
2018-07-24T04:14:43.662Z,100367.48
2018-07-24T04:17:41.646Z,100372.65
2018-07-24T04:20:39.726Z,100371.42
2018-07-24T04:23:37.584Z,100372.33
2018-07-24T04:26:35.578Z,100366.92
2018-07-24T04:29:33.549Z,100364.81
2018-07-24T04:32:30.704Z,100368.71
2018-07-24T04:35:28.668Z,100363.31
2018-07-24T04:38:26.550Z,100365.81
2018-07-24T04:41:24.730Z,100356.91
2018-07-24T04:44:22.686Z,100363.83
2018-07-24T04:47:20.790Z,100359.87
2018-07-24T04:50:18.842Z,100357.98
2018-07-24T04:53:16.738Z,100359.58
2018-07-24T04:56:13.837Z,100355.91
2018-07-24T04:59:11.950Z,100347.91
2018-07-24T05:02:10.161Z,100351.83
2018-07-24T05:05:08.074Z,100349.86
2018-07-24T05:08:05.374Z,100357.72
2018-07-24T05:11:02.523Z,100356.16
2018-07-24T05:14:00.719Z,100352.05
2018-07-24T05:16:58.771Z,100343.94
2018-07-24T05:19:56.699Z,100350.91
2018-07-24T05:22:54.507Z,100347.70
2018-07-24T05:25:51.962Z,100340.31
2018-07-24T05:28:50.000Z,100340.42
2018-07-24T05:31:47.979Z,100339.15
2018-07-24T05:34:46.099Z,100344.31
2018-07-24T05:37:44.085Z,100346.66
2018-07-24T05:40:42.176Z,100345.41
2018-07-24T05:43:39.413Z,100347.22
2018-07-24T05:46:37.124Z,100351.83
2018-07-24T05:49:35.492Z,100357.00
2018-07-24T05:52:33.631Z,100355.90
2018-07-24T05:55:31.622Z,100358.91
2018-07-24T05:58:29.712Z,100361.39
2018-07-24T06:01:27.562Z,100359.27
2018-07-24T06:04:24.906Z,100354.84
2018-07-24T06:07:22.936Z,100352.18
2018-07-24T06:10:20.079Z,100357.20
2018-07-24T06:13:17.389Z,100352.31
2018-07-24T06:16:15.493Z,100342.31
2018-07-24T06:19:12.778Z,100355.08
2018-07-24T06:22:10.227Z,100354.30
2018-07-24T06:25:08.063Z,100357.50
2018-07-24T06:28:05.318Z,100357.33
2018-07-24T06:31:03.310Z,100352.98
2018-07-24T06:34:00.479Z,100362.13
2018-07-24T06:36:57.638Z,100368.50
2018-07-24T06:39:55.471Z,100368.56
2018-07-24T06:42:53.806Z,100362.84
2018-07-24T06:45:51.754Z,100367.27
2018-07-24T06:48:49.543Z,100367.77
2018-07-24T06:51:47.719Z,100358.42
2018-07-24T06:54:45.787Z,100357.77
2018-07-24T06:57:43.691Z,100362.77
2018-07-24T07:00:41.930Z,100356.55
2018-07-24T07:03:40.003Z,100352.95
2018-07-24T07:06:38.183Z,100356.34
2018-07-24T07:09:36.070Z,100357.77
2018-07-24T07:12:34.425Z,100353.73
2018-07-24T07:15:32.321Z,100357.28
2018-07-24T07:18:29.588Z,100351.41
2018-07-24T07:21:27.847Z,100349.88
2018-07-24T07:24:25.037Z,100352.74
2018-07-24T07:27:22.851Z,100348.55
2018-07-24T07:30:21.193Z,100347.80
2018-07-24T07:33:20.288Z,100344.94
2018-07-24T07:36:17.675Z,100340.94
2018-07-24T07:39:16.850Z,100329.77
2018-07-24T07:42:14.198Z,100330.30
2018-07-24T07:45:12.308Z,100330.70
2018-07-24T07:48:10.450Z,100326.83
2018-07-24T07:51:08.452Z,100328.65
2018-07-24T07:54:06.446Z,100331.25
2018-07-24T07:57:04.656Z,100324.34
2018-07-24T08:00:02.897Z,100329.94
2018-07-24T08:03:01.106Z,100326.86
2018-07-24T08:05:59.294Z,100329.41
2018-07-24T08:08:57.591Z,100331.32
2018-07-24T08:11:55.475Z,100326.00
2018-07-24T08:14:53.543Z,100326.08
2018-07-24T08:17:51.653Z,100318.77
2018-07-24T08:20:49.855Z,100328.39
2018-07-24T08:23:47.894Z,100321.78
2018-07-24T08:26:45.889Z,100328.73
2018-07-24T08:29:43.968Z,100319.14
2018-07-24T08:32:42.133Z,100313.23
2018-07-24T08:35:40.098Z,100318.09
2018-07-24T08:38:37.290Z,100316.11
2018-07-24T08:41:34.842Z,100315.13
2018-07-24T08:44:32.055Z,100308.99
2018-07-24T08:47:30.315Z,100315.23
2018-07-24T08:50:28.596Z,100312.55
2018-07-24T08:53:26.831Z,100317.53
2018-07-24T08:56:24.878Z,100320.68
2018-07-24T08:59:23.165Z,100311.02
2018-07-24T09:02:20.966Z,100303.19
2018-07-24T09:05:18.287Z,100310.20
2018-07-24T09:08:16.351Z,100317.00
2018-07-24T09:11:14.581Z,100323.52
2018-07-24T09:14:12.218Z,100315.88
2018-07-24T09:17:10.397Z,100304.74
2018-07-24T09:20:07.659Z,100308.08
2018-07-24T09:23:05.779Z,100308.73
2018-07-24T09:26:02.885Z,100305.40
2018-07-24T09:29:00.947Z,100304.20
2018-07-24T09:31:58.851Z,100299.31
2018-07-24T09:34:56.884Z,100298.39
2018-07-24T09:37:54.917Z,100300.21
2018-07-24T09:40:52.911Z,100298.47
2018-07-24T09:43:50.028Z,100296.46
2018-07-24T09:46:47.924Z,100294.91
2018-07-24T09:49:45.883Z,100294.11
2018-07-24T09:52:43.927Z,100297.09
2018-07-24T09:55:41.919Z,100289.52
2018-07-24T09:58:39.999Z,100281.85
2018-07-24T10:01:39.465Z,100292.86
2018-07-24T10:04:37.502Z,100286.20
2018-07-24T10:07:35.675Z,100280.25
2018-07-24T10:10:33.531Z,100282.28
2018-07-24T10:13:31.615Z,100280.09
2018-07-24T10:16:29.705Z,100276.54
2018-07-24T10:19:27.063Z,100279.52
2018-07-24T10:22:25.336Z,100270.84
2018-07-24T10:25:23.466Z,100261.68
2018-07-24T10:28:21.838Z,100259.88
2018-07-24T10:31:19.881Z,100250.36
2018-07-24T10:34:17.635Z,100255.47
2018-07-24T10:37:15.795Z,100251.23
2018-07-24T10:40:13.986Z,100247.30
2018-07-24T10:43:11.746Z,100252.98
2018-07-24T10:46:09.605Z,100245.07
2018-07-24T10:49:06.766Z,100256.25
2018-07-24T10:52:04.874Z,100256.09
2018-07-24T10:55:02.857Z,100251.79
2018-07-24T10:57:59.883Z,100242.93
2018-07-24T11:00:57.058Z,100255.81
2018-07-24T11:03:54.931Z,100243.98
2018-07-24T11:06:52.883Z,100237.91
2018-07-24T11:09:50.773Z,100228.61
2018-07-24T11:12:48.366Z,100219.42
2018-07-24T11:15:46.386Z,100224.53
2018-07-24T11:18:45.376Z,100222.81
2018-07-24T11:21:43.290Z,100218.99
2018-07-24T11:24:41.246Z,100210.78
2018-07-24T11:27:39.017Z,100208.21
2018-07-24T11:30:36.883Z,100208.64
2018-07-24T11:33:35.035Z,100202.28
2018-07-24T11:36:32.726Z,100195.80
2018-07-24T11:39:31.700Z,100195.80
2018-07-24T11:42:28.994Z,100198.06
2018-07-24T11:45:26.754Z,100204.88
2018-07-24T11:48:24.753Z,100202.72
2018-07-24T11:51:22.713Z,100186.25
2018-07-24T11:54:20.596Z,100187.93
2018-07-24T11:57:18.685Z,100191.06
2018-07-24T12:00:15.875Z,100185.23
2018-07-24T12:03:13.988Z,100173.66
2018-07-24T12:06:11.435Z,100186.16
2018-07-24T12:09:09.537Z,100176.05
2018-07-24T12:12:07.170Z,100174.37
2018-07-24T12:15:05.312Z,100167.55
2018-07-24T12:18:03.049Z,100165.98
2018-07-24T12:21:01.193Z,100164.10
2018-07-24T12:23:59.237Z,100166.53
2018-07-24T12:26:57.274Z,100163.23
2018-07-24T12:29:55.137Z,100163.11
2018-07-24T12:32:52.991Z,100148.84
2018-07-24T12:35:51.140Z,100147.19
2018-07-24T12:38:49.242Z,100145.27
2018-07-24T12:41:47.250Z,100145.08
2018-07-24T12:44:45.265Z,100136.94
2018-07-24T12:47:42.489Z,100142.84
2018-07-24T12:50:40.702Z,100135.44
2018-07-24T12:53:38.764Z,100133.95
2018-07-24T12:56:36.994Z,100133.52
2018-07-24T12:59:34.958Z,100130.23
2018-07-24T13:02:33.066Z,100123.22
2018-07-24T13:05:30.957Z,100125.86
2018-07-24T13:08:29.082Z,100117.42
2018-07-24T13:11:27.217Z,100119.81
2018-07-24T13:14:25.191Z,100106.53
2018-07-24T13:17:23.352Z,100112.28
2018-07-24T13:20:21.600Z,100101.22
2018-07-24T13:23:19.664Z,100103.64
2018-07-24T13:26:17.355Z,100098.25
2018-07-24T13:29:15.442Z,100095.20
2018-07-24T13:32:13.922Z,100095.68
2018-07-24T13:35:11.800Z,100090.81
2018-07-24T13:38:10.042Z,100100.98
2018-07-24T13:41:08.199Z,100093.76
2018-07-24T13:44:06.122Z,100086.50
2018-07-24T13:47:12.421Z,100093.39
2018-07-24T13:50:10.387Z,100084.35
2018-07-24T13:53:08.222Z,100080.11
2018-07-24T13:56:06.270Z,100086.58
2018-07-24T13:59:04.507Z,100088.36
2018-07-24T14:02:01.671Z,100080.33
2018-07-24T14:04:59.567Z,100073.69
2018-07-24T14:07:56.806Z,100072.78
2018-07-24T14:10:54.932Z,100073.19
2018-07-24T14:25:47.396Z,100068.88
2018-07-24T14:28:44.942Z,100064.75
2018-07-24T14:31:42.932Z,100056.74
2018-07-24T14:34:40.714Z,100052.30
2018-07-24T14:37:38.859Z,100045.06
2018-07-24T14:40:36.550Z,100052.55
2018-07-24T14:43:34.149Z,100051.83
2018-07-24T14:46:32.227Z,100050.13
2018-07-24T14:49:29.920Z,100039.57
2018-07-24T14:52:27.786Z,100045.47
2018-07-24T14:55:25.046Z,100040.19
2018-07-24T14:58:22.524Z,100033.05
2018-07-24T15:01:20.549Z,100031.62
2018-07-24T15:04:18.625Z,100039.90
2018-07-24T15:07:16.439Z,100031.92
2018-07-24T15:10:13.763Z,100026.45
2018-07-24T15:13:11.893Z,100040.89
2018-07-24T15:16:09.789Z,100031.45
2018-07-24T15:19:07.007Z,100039.23
2018-07-24T15:22:04.184Z,100037.51
2018-07-24T15:25:01.544Z,100026.55
2018-07-24T15:27:59.523Z,100022.30
2018-07-24T15:30:57.052Z,100019.23
2018-07-24T15:33:55.153Z,100020.66
2018-07-24T15:36:53.342Z,100024.48
2018-07-24T15:39:50.524Z,100018.89
2018-07-24T15:42:48.647Z,100019.56
2018-07-24T15:45:46.411Z,100012.95
2018-07-24T15:48:43.650Z,100011.50
2018-07-24T15:51:41.189Z,100007.70
2018-07-24T15:54:39.242Z,100012.94
2018-07-24T15:57:37.377Z,100012.00
2018-07-24T16:00:35.122Z,100005.53
2018-07-24T16:03:33.131Z,100006.96
2018-07-24T16:06:30.343Z,100007.87
2018-07-24T16:09:30.534Z,100006.08
2018-07-24T16:12:28.731Z,100000.68
2018-07-24T16:15:27.737Z,100004.44
2018-07-24T16:18:25.827Z,100000.64
2018-07-24T16:21:24.125Z,100003.69
2018-07-24T16:24:22.041Z,100001.20
2018-07-24T16:27:20.282Z,100007.44
2018-07-24T16:30:17.479Z,100005.23
2018-07-24T16:33:15.044Z,100004.06
2018-07-24T16:36:12.255Z,100002.30
2018-07-24T16:39:09.279Z,100005.08
2018-07-24T16:42:06.929Z,100005.06
2018-07-24T16:45:04.735Z,100000.23
2018-07-24T16:48:02.055Z,100000.48
2018-07-24T16:51:00.111Z,99994.08
2018-07-24T16:53:57.998Z,99995.61
2018-07-24T16:56:55.987Z,99997.29
2018-07-24T16:59:54.270Z,99995.64
2018-07-24T17:02:51.735Z,99989.41
2018-07-24T17:05:49.686Z,100003.34
2018-07-24T17:08:46.912Z,99994.07
2018-07-24T17:11:45.199Z,99996.23
2018-07-24T17:14:42.340Z,99995.97
2018-07-24T17:17:39.509Z,100000.33
2018-07-24T17:20:37.536Z,99994.69
2018-07-24T17:23:34.839Z,99988.72
2018-07-24T17:26:32.857Z,99991.42
2018-07-24T17:29:30.998Z,99993.09
2018-07-24T17:32:28.386Z,100002.18
2018-07-24T17:35:26.395Z,99990.20
2018-07-24T17:38:24.439Z,99997.31
2018-07-24T17:41:21.722Z,99998.14
2018-07-24T17:44:19.107Z,100000.06
2018-07-24T17:47:16.735Z,100012.08
2018-07-24T17:50:14.172Z,99999.02
2018-07-24T17:53:11.892Z,99996.30
2018-07-24T17:56:09.599Z,99999.81
2018-07-24T17:59:06.994Z,99994.37
2018-07-24T18:02:05.192Z,99993.02
2018-07-24T18:05:03.303Z,99999.03
2018-07-24T18:08:01.046Z,100005.59
2018-07-24T18:10:59.070Z,100009.13
2018-07-24T18:13:57.449Z,100011.59
2018-07-24T18:16:55.187Z,100011.59
2018-07-24T18:19:53.076Z,100016.73
2018-07-24T18:22:51.090Z,100020.81
2018-07-24T18:25:48.952Z,100017.53
2018-07-24T18:28:45.883Z,100022.18
2018-07-24T18:31:43.781Z,100023.52
2018-07-24T18:34:41.850Z,100027.03
2018-07-24T18:37:39.807Z,100025.09
2018-07-24T18:40:37.823Z,100033.47
2018-07-24T18:43:35.036Z,100023.94
2018-07-24T18:46:32.978Z,100026.38
2018-07-24T18:49:30.952Z,100029.84
2018-07-24T18:52:29.043Z,100031.45
2018-07-24T18:55:26.771Z,100034.86
2018-07-24T18:58:24.149Z,100033.71
2018-07-24T19:01:21.917Z,100034.97
2018-07-24T19:04:19.346Z,100030.70
2018-07-24T19:07:17.300Z,100034.10
2018-07-24T19:10:14.649Z,100039.98
2018-07-24T19:13:12.851Z,100039.84
2018-07-24T19:16:09.762Z,100035.02
2018-07-24T19:19:08.021Z,100030.80
2018-07-24T19:22:05.988Z,100034.58
2018-07-24T19:25:03.058Z,100038.34
2018-07-24T19:28:00.242Z,100040.00
2018-07-24T19:30:57.480Z,100040.58
2018-07-24T19:33:55.599Z,100044.17
2018-07-24T19:36:54.023Z,100048.77
2018-07-24T19:39:52.161Z,100048.91
2018-07-24T19:42:50.203Z,100060.66
2018-07-24T19:45:47.306Z,100057.29
2018-07-24T19:48:45.188Z,100062.42
2018-07-24T19:51:42.449Z,100063.95
2018-07-24T19:54:40.707Z,100066.45
2018-07-24T19:57:37.859Z,100058.69
2018-07-24T20:00:35.958Z,100069.92
2018-07-24T20:03:34.421Z,100062.15
2018-07-24T20:06:31.590Z,100067.59
2018-07-24T20:09:30.975Z,100065.59
2018-07-24T20:12:29.183Z,100061.55
2018-07-24T20:15:29.790Z,100065.17
2018-07-24T20:18:27.112Z,100064.84
2018-07-24T20:21:25.146Z,100075.36
2018-07-24T20:24:22.632Z,100076.98
2018-07-24T20:27:21.483Z,100073.84
2018-07-24T20:30:19.615Z,100076.66
2018-07-24T20:33:17.557Z,100076.81
2018-07-24T20:36:15.466Z,100085.75
2018-07-24T20:39:12.951Z,100085.31
2018-07-24T20:42:10.804Z,100084.53
2018-07-24T20:45:07.902Z,100089.11
2018-07-24T20:48:05.164Z,100086.38
2018-07-24T20:51:03.302Z,100085.66
2018-07-24T20:54:01.311Z,100088.86
2018-07-24T20:56:59.318Z,100087.45
2018-07-24T20:59:57.257Z,100086.20
2018-07-24T21:02:55.296Z,100084.71
2018-07-24T21:05:52.433Z,100083.95
2018-07-24T21:08:50.624Z,100088.64
2018-07-24T21:11:47.615Z,100090.19
2018-07-24T21:14:45.572Z,100093.81
2018-07-24T21:17:42.638Z,100086.89
2018-07-24T21:20:39.728Z,100089.73
2018-07-24T21:23:37.103Z,100087.89
2018-07-24T21:26:35.279Z,100086.95
2018-07-24T21:29:32.427Z,100092.66
2018-07-24T21:32:29.567Z,100089.51
2018-07-24T21:35:26.827Z,100088.19
2018-07-24T21:38:24.062Z,100089.06
2018-07-24T21:41:21.779Z,100092.48
2018-07-24T21:44:19.812Z,100090.36
2018-07-24T21:47:17.114Z,100087.67
2018-07-24T21:50:15.219Z,100091.77
2018-07-24T21:53:13.321Z,100095.35
2018-07-24T21:56:11.498Z,100094.33
2018-07-24T21:59:08.901Z,100090.57
2018-07-24T22:02:06.946Z,100099.07
2018-07-24T22:05:05.122Z,100097.41
2018-07-24T22:08:02.489Z,100096.17
2018-07-24T22:11:00.551Z,100102.24
2018-07-24T22:13:57.829Z,100096.88
2018-07-24T22:16:55.825Z,100095.89
2018-07-24T22:19:54.106Z,100098.06
2018-07-24T22:22:51.819Z,100098.73
2018-07-24T22:25:49.825Z,100103.11
2018-07-24T22:28:47.268Z,100107.30
2018-07-24T22:31:44.718Z,100108.97
2018-07-24T22:34:42.651Z,100095.23
2018-07-24T22:37:40.284Z,100101.87
2018-07-24T22:40:38.186Z,100105.09
2018-07-24T22:43:36.042Z,100106.91
2018-07-24T22:46:33.862Z,100109.80
2018-07-24T22:49:31.867Z,100110.00
2018-07-24T22:52:29.810Z,100108.98
2018-07-24T22:55:27.024Z,100106.82
2018-07-24T22:58:24.978Z,100108.17
2018-07-24T23:01:22.749Z,100110.94
2018-07-24T23:04:19.844Z,100104.47
2018-07-24T23:07:18.069Z,100111.78
2018-07-24T23:10:16.193Z,100115.50
2018-07-24T23:13:14.354Z,100112.41
2018-07-24T23:16:11.642Z,100116.10
2018-07-24T23:19:08.854Z,100115.36
2018-07-24T23:22:05.967Z,100115.88
2018-07-24T23:25:03.317Z,100116.38
2018-07-24T23:28:01.269Z,100117.81
2018-07-24T23:30:59.238Z,100115.06
2018-07-24T23:33:57.042Z,100111.75
2018-07-24T23:36:54.237Z,100105.77
2018-07-24T23:42:40.882Z,100111.66
2018-07-24T23:45:38.103Z,100106.03
2018-07-24T23:48:35.778Z,100106.45
2018-07-24T23:51:33.600Z,100109.27
2018-07-24T23:54:31.492Z,100113.85
2018-07-24T23:57:29.460Z,100114.89
